Time;durP1;ratioP1;P1;durP2;ratioP2;P2;SDS_P1;SDS_P2;PMS_P1;PMS_P2;Temp;Humidity;BMP_temperature;BMP_pressure;BME280_temperature;BME280_humidity;BME280_pressure;Samples;Min_cycle;Max_cycle;Signal;HPM_P1;HPM_P2
2022/07/22 00:01:22;;;;;;;16.08;4.35;;;16.40;99.90;;;;;;5074784;28;20378;-61
2022/07/22 00:03:48;;;;;;;18.52;3.85;;;16.30;99.90;;;;;;5074958;28;20032;-60
2022/07/22 00:06:13;;;;;;;15.57;4.25;;;16.30;99.90;;;;;;5074787;28;20480;-61
2022/07/22 00:08:39;;;;;;;19.30;4.22;;;16.30;99.90;;;;;;5074811;28;20035;-62
2022/07/22 00:11:05;;;;;;;17.42;4.18;;;16.30;99.90;;;;;;5074669;28;20147;-61
2022/07/22 00:13:31;;;;;;;15.43;4.40;;;16.20;99.90;;;;;;5074794;28;20024;-62
2022/07/22 00:15:57;;;;;;;14.90;4.18;;;16.20;99.90;;;;;;5074315;28;20058;-62
2022/07/22 00:18:23;;;;;;;17.15;3.90;;;16.20;99.90;;;;;;5074514;28;20017;-63
2022/07/22 00:20:49;;;;;;;14.43;4.40;;;16.20;99.90;;;;;;5074051;28;20107;-62
2022/07/22 00:23:15;;;;;;;17.60;3.97;;;16.20;99.90;;;;;;5074692;28;20082;-63
2022/07/22 00:25:41;;;;;;;13.98;4.20;;;16.20;99.90;;;;;;5074321;28;20021;-62
2022/07/22 00:28:06;;;;;;;13.23;4.10;;;16.10;99.90;;;;;;5074140;28;20105;-62
2022/07/22 00:30:32;;;;;;;15.77;4.47;;;16.00;99.90;;;;;;5074290;28;20373;-62
2022/07/22 00:32:58;;;;;;;18.08;4.38;;;16.00;99.90;;;;;;5073960;28;20039;-64
2022/07/22 00:35:24;;;;;;;18.33;4.20;;;16.00;99.90;;;;;;5072771;28;20024;-62
2022/07/22 00:37:49;;;;;;;16.70;4.70;;;16.00;99.90;;;;;;5074041;28;20036;-62
2022/07/22 00:40:15;;;;;;;15.88;4.97;;;16.00;99.90;;;;;;5074212;28;20028;-62
2022/07/22 00:42:41;;;;;;;13.82;4.63;;;16.20;99.90;;;;;;5073735;28;20367;-62
2022/07/22 00:45:08;;;;;;;17.45;5.57;;;16.20;99.90;;;;;;5073965;28;20032;-62
2022/07/22 00:47:34;;;;;;;12.13;4.38;;;16.00;99.90;;;;;;5073784;28;20024;-61
2022/07/22 00:49:59;;;;;;;16.10;4.40;;;15.90;99.90;;;;;;5074093;28;20025;-62
2022/07/22 00:52:26;;;;;;;18.65;4.53;;;15.80;99.90;;;;;;5073880;28;20481;-61
2022/07/22 00:54:52;;;;;;;14.75;4.63;;;15.80;99.90;;;;;;5073918;28;20021;-62
2022/07/22 00:57:17;;;;;;;18.15;4.32;;;15.80;99.90;;;;;;5073616;28;20032;-61
2022/07/22 00:59:43;;;;;;;14.38;4.10;;;15.80;99.90;;;;;;5073175;28;20032;-61
2022/07/22 01:02:09;;;;;;;17.02;4.45;;;15.80;99.90;;;;;;5072388;28;20170;-62
2022/07/22 01:04:36;;;;;;;14.57;4.43;;;15.80;99.90;;;;;;5074021;28;20029;-61
2022/07/22 01:07:02;;;;;;;13.25;4.32;;;15.80;99.90;;;;;;5073403;28;20028;-61
2022/07/22 01:09:27;;;;;;;18.00;4.45;;;15.80;99.90;;;;;;5073687;28;20036;-61
2022/07/22 01:11:53;;;;;;;16.00;4.60;;;15.80;99.90;;;;;;5073465;28;20027;-62
2022/07/22 01:14:19;;;;;;;17.10;4.65;;;15.80;99.90;;;;;;5073600;28;20032;-62
2022/07/22 01:16:44;;;;;;;15.80;4.82;;;15.80;99.90;;;;;;5073774;28;20111;-61
2022/07/22 01:19:10;;;;;;;15.65;4.43;;;15.80;99.90;;;;;;5073507;28;20016;-62
2022/07/22 01:21:36;;;;;;;15.35;4.10;;;15.80;99.90;;;;;;5073355;28;20029;-62
2022/07/22 01:24:03;;;;;;;22.08;4.40;;;15.80;99.90;;;;;;5073515;28;20033;-62
2022/07/22 01:26:28;;;;;;;18.85;4.75;;;15.90;99.90;;;;;;5073402;28;20051;-61
2022/07/22 01:28:54;;;;;;;15.95;5.05;;;16.00;99.90;;;;;;5073659;28;20500;-63
2022/07/22 01:31:20;;;;;;;21.83;6.10;;;15.90;99.90;;;;;;5073383;28;20441;-61
2022/07/22 01:33:46;;;;;;;15.18;5.72;;;15.90;99.90;;;;;;5073591;28;20048;-61
2022/07/22 01:36:11;;;;;;;17.85;5.47;;;16.10;99.90;;;;;;5073136;28;20477;-62
2022/07/22 01:38:37;;;;;;;19.45;5.40;;;16.00;99.90;;;;;;5073391;28;20469;-62
2022/07/22 01:41:03;;;;;;;18.48;5.63;;;15.90;99.90;;;;;;5073061;28;20040;-61
2022/07/22 01:43:29;;;;;;;20.15;5.97;;;15.80;99.90;;;;;;5073102;28;20040;-64
2022/07/22 01:45:55;;;;;;;14.27;5.18;;;15.70;99.90;;;;;;5072866;28;20047;-61
2022/07/22 01:48:21;;;;;;;12.88;5.10;;;15.60;99.90;;;;;;5073118;28;20024;-61
2022/07/22 01:50:47;;;;;;;13.90;5.07;;;15.60;99.90;;;;;;5072789;28;20055;-61
2022/07/22 01:53:13;;;;;;;16.05;5.35;;;15.60;99.90;;;;;;5072354;28;20021;-61
2022/07/22 01:55:39;;;;;;;12.38;5.07;;;15.50;99.90;;;;;;5072531;28;20505;-62
2022/07/22 01:58:05;;;;;;;14.70;5.25;;;15.50;99.90;;;;;;5072622;28;20143;-61
2022/07/22 02:00:32;;;;;;;22.35;6.28;;;15.60;99.90;;;;;;5072341;28;20047;-61
2022/07/22 02:02:58;;;;;;;14.98;5.63;;;15.70;99.90;;;;;;5071139;28;20467;-61
2022/07/22 02:05:24;;;;;;;21.02;6.35;;;15.70;99.90;;;;;;5072459;28;20162;-62
2022/07/22 02:07:49;;;;;;;21.15;5.75;;;15.70;99.90;;;;;;5072766;28;20036;-62
2022/07/22 02:10:15;;;;;;;18.63;5.70;;;15.60;99.90;;;;;;5072300;28;20040;-61
2022/07/22 02:12:41;;;;;;;15.45;5.50;;;15.40;99.90;;;;;;5072218;28;20031;-62
2022/07/22 02:15:08;;;;;;;13.45;5.40;;;15.40;99.90;;;;;;5072523;28;20554;-62
2022/07/22 02:17:34;;;;;;;17.38;5.20;;;15.30;99.90;;;;;;5072558;28;20048;-61
2022/07/22 02:20:00;;;;;;;19.48;5.47;;;15.20;99.90;;;;;;5072250;28;20044;-61
2022/07/22 02:22:25;;;;;;;16.23;5.63;;;15.20;99.90;;;;;;5072434;28;20033;-61
2022/07/22 02:24:51;;;;;;;13.07;5.28;;;15.10;99.90;;;;;;5070983;28;20021;-63
2022/07/22 02:27:17;;;;;;;16.05;6.13;;;15.10;99.90;;;;;;5071954;28;20274;-62
2022/07/22 02:29:42;;;;;;;18.92;6.50;;;15.10;99.90;;;;;;5071968;28;20033;-61
2022/07/22 02:32:08;;;;;;;14.82;6.10;;;15.20;99.90;;;;;;5072082;28;20440;-62
2022/07/22 02:34:34;;;;;;;18.35;5.88;;;15.20;99.90;;;;;;5072052;28;20507;-61
2022/07/22 02:36:59;;;;;;;16.75;6.15;;;15.20;99.90;;;;;;5072110;28;20567;-62
2022/07/22 02:39:25;;;;;;;17.63;6.53;;;15.20;99.90;;;;;;5072073;28;20384;-61
2022/07/22 02:41:51;;;;;;;20.80;7.07;;;15.30;99.90;;;;;;5070580;28;20058;-64
2022/07/22 02:44:17;;;;;;;26.65;6.45;;;15.40;99.90;;;;;;5071750;28;20021;-61
2022/07/22 02:46:42;;;;;;;23.95;6.50;;;15.30;99.90;;;;;;5071741;28;20092;-61
2022/07/22 02:49:08;;;;;;;18.25;6.15;;;15.20;99.90;;;;;;5072083;28;20108;-61
2022/07/22 02:51:33;;;;;;;14.57;6.18;;;15.10;99.90;;;;;;5071388;28;20158;-61
2022/07/22 02:53:59;;;;;;;14.38;5.80;;;15.10;99.90;;;;;;5071349;28;20066;-61
2022/07/22 02:56:25;;;;;;;22.58;6.03;;;15.10;99.90;;;;;;5071164;28;20035;-61
2022/07/22 02:58:52;;;;;;;18.80;5.32;;;15.10;99.90;;;;;;5071266;28;20044;-61
2022/07/22 03:01:19;;;;;;;13.65;5.57;;;15.00;99.90;;;;;;5071419;28;20107;-61
2022/07/22 03:03:45;;;;;;;18.05;5.50;;;14.80;99.90;;;;;;5071150;28;20566;-60
2022/07/22 03:06:11;;;;;;;17.33;5.90;;;14.80;99.90;;;;;;5071193;28;20054;-61
2022/07/22 03:08:38;;;;;;;16.08;6.22;;;14.80;99.90;;;;;;5071507;28;20035;-61
2022/07/22 03:11:04;;;;;;;14.82;6.18;;;14.80;99.90;;;;;;5071079;28;20032;-60
2022/07/22 03:13:29;;;;;;;16.13;6.40;;;14.70;99.90;;;;;;5071166;28;20086;-61
2022/07/22 03:15:55;;;;;;;14.00;5.97;;;14.70;99.90;;;;;;5071910;28;20028;-61
2022/07/22 03:18:21;;;;;;;18.70;6.75;;;14.70;99.90;;;;;;5070304;28;20024;-61
2022/07/22 03:20:47;;;;;;;23.00;7.43;;;14.90;99.90;;;;;;5070012;28;20521;-61
2022/07/22 03:23:13;;;;;;;20.58;7.82;;;15.20;99.90;;;;;;5070851;28;20025;-61
2022/07/22 03:25:39;;;;;;;16.70;7.07;;;15.40;99.90;;;;;;5071367;28;20089;-61
2022/07/22 03:28:05;;;;;;;13.80;6.30;;;15.50;99.90;;;;;;5071885;28;20127;-60
2022/07/22 03:30:31;;;;;;;20.98;6.70;;;15.40;99.90;;;;;;5071374;28;20439;-61
2022/07/22 03:32:57;;;;;;;15.02;6.55;;;15.40;99.90;;;;;;5071498;28;20028;-60
2022/07/22 03:35:23;;;;;;;18.73;6.53;;;15.40;99.90;;;;;;5071110;28;20056;-62
2022/07/22 03:37:49;;;;;;;19.10;7.10;;;15.40;99.90;;;;;;5071155;28;20029;-62
2022/07/22 03:40:15;;;;;;;14.68;6.90;;;15.50;99.90;;;;;;5071218;28;20025;-62
2022/07/22 03:42:41;;;;;;;16.98;6.93;;;15.50;99.90;;;;;;5070938;28;20029;-62
2022/07/22 03:45:07;;;;;;;18.20;6.18;;;15.60;99.90;;;;;;5071550;28;20024;-62
2022/07/22 03:47:33;;;;;;;16.08;6.10;;;15.50;99.90;;;;;;5070930;28;20025;-61
2022/07/22 03:49:59;;;;;;;16.33;5.78;;;15.50;99.90;;;;;;5070947;28;20534;-61
2022/07/22 03:52:25;;;;;;;11.52;5.95;;;15.50;99.90;;;;;;5071022;28;20025;-61
2022/07/22 03:54:51;;;;;;;14.23;6.03;;;15.60;99.90;;;;;;5070951;28;20021;-61
2022/07/22 03:57:16;;;;;;;16.25;6.40;;;15.60;99.90;;;;;;5070820;28;20086;-62
2022/07/22 03:59:42;;;;;;;17.70;6.60;;;15.70;99.90;;;;;;5070947;28;20028;-61
2022/07/22 04:02:08;;;;;;;19.65;7.05;;;15.80;99.90;;;;;;5070776;28;20047;-61
2022/07/22 04:04:33;;;;;;;13.70;6.32;;;15.80;99.90;;;;;;5070649;28;20024;-61
2022/07/22 04:06:59;;;;;;;18.38;6.47;;;15.60;99.90;;;;;;5070832;28;20036;-61
2022/07/22 04:09:24;;;;;;;15.48;6.50;;;15.70;99.90;;;;;;5070958;28;20033;-61
2022/07/22 04:11:50;;;;;;;15.73;5.97;;;15.80;99.90;;;;;;5070767;28;20040;-61
2022/07/22 04:14:16;;;;;;;18.50;6.90;;;15.80;99.90;;;;;;5070897;28;20305;-61
2022/07/22 04:16:43;;;;;;;16.95;6.93;;;15.90;99.90;;;;;;5070606;28;20029;-61
2022/07/22 04:19:10;;;;;;;18.05;6.45;;;16.10;99.90;;;;;;5071127;28;20448;-62
2022/07/22 04:21:36;;;;;;;21.23;6.70;;;16.10;99.90;;;;;;5070659;28;20032;-61
2022/07/22 04:24:01;;;;;;;19.02;6.93;;;16.20;99.90;;;;;;5070802;28;20031;-61
2022/07/22 04:26:27;;;;;;;18.80;6.60;;;16.20;99.90;;;;;;5070674;28;20493;-62
2022/07/22 04:28:53;;;;;;;18.35;6.40;;;16.20;99.90;;;;;;5070829;28;20388;-62
2022/07/22 04:31:18;;;;;;;15.85;5.85;;;16.10;99.90;;;;;;5070372;28;20392;-61
2022/07/22 04:33:44;;;;;;;19.70;7.03;;;16.10;99.90;;;;;;5070571;28;20021;-62
2022/07/22 04:36:10;;;;;;;12.13;6.18;;;16.40;99.90;;;;;;5073014;28;20058;-62
2022/07/22 04:38:35;;;;;;;19.98;6.22;;;16.60;99.90;;;;;;5074041;28;20380;-62
2022/07/22 04:41:01;;;;;;;19.63;6.53;;;16.60;99.90;;;;;;5074439;28;20024;-62
2022/07/22 04:43:27;;;;;;;13.93;5.88;;;16.60;99.90;;;;;;5074197;28;20102;-63
2022/07/22 04:45:52;;;;;;;14.25;5.28;;;16.60;99.90;;;;;;5073798;28;20469;-63
2022/07/22 04:48:18;;;;;;;16.05;5.07;;;16.60;99.90;;;;;;5074146;28;20029;-62
2022/07/22 04:50:44;;;;;;;19.50;5.18;;;16.50;99.90;;;;;;5074096;28;20029;-62
2022/07/22 04:53:10;;;;;;;23.15;6.07;;;16.60;99.90;;;;;;5074055;28;20024;-62
2022/07/22 04:55:36;;;;;;;18.45;5.65;;;16.80;99.90;;;;;;5073885;28;20056;-62
2022/07/22 04:58:01;;;;;;;17.05;5.10;;;16.90;99.90;;;;;;5072398;28;20040;-62
2022/07/22 05:00:27;;;;;;;18.67;4.65;;;16.80;99.90;;;;;;5074004;28;20032;-61
2022/07/22 05:02:53;;;;;;;11.23;5.25;;;16.70;99.90;;;;;;5073392;28;20670;-61
2022/07/22 05:05:19;;;;;;;13.65;5.63;;;16.70;99.90;;;;;;5073773;28;20413;-62
2022/07/22 05:07:44;;;;;;;13.82;4.95;;;16.80;99.90;;;;;;5072250;28;20025;-62
2022/07/22 05:10:10;;;;;;;14.05;4.82;;;16.70;99.90;;;;;;5073750;28;20040;-61
2022/07/22 05:12:36;;;;;;;13.32;5.05;;;16.70;99.90;;;;;;5073676;28;20089;-61
2022/07/22 05:15:02;;;;;;;17.10;5.47;;;16.80;99.90;;;;;;5073376;28;20024;-61
2022/07/22 05:17:27;;;;;;;18.38;6.03;;;16.80;99.90;;;;;;5073398;28;20480;-61
2022/07/22 05:19:53;;;;;;;14.65;5.38;;;16.90;99.90;;;;;;5073343;28;20024;-61
2022/07/22 05:22:19;;;;;;;17.67;5.55;;;17.00;99.90;;;;;;5073534;28;20028;-62
2022/07/22 05:24:45;;;;;;;17.48;5.30;;;17.10;99.90;;;;;;5072905;28;20027;-61
2022/07/22 05:27:11;;;;;;;16.65;5.50;;;17.30;99.90;;;;;;5072951;28;20028;-61
2022/07/22 05:29:36;;;;;;;21.00;5.45;;;17.40;99.90;;;;;;5073687;28;20039;-62
2022/07/22 05:32:02;;;;;;;11.55;5.68;;;17.50;99.90;;;;;;5073182;28;20060;-61
2022/07/22 05:34:28;;;;;;;20.13;5.13;;;17.60;99.90;;;;;;5072921;28;20459;-61
2022/07/22 05:36:54;;;;;;;18.15;5.22;;;17.60;99.90;;;;;;5073047;28;20067;-61
2022/07/22 05:39:19;;;;;;;16.63;5.15;;;17.60;99.90;;;;;;5073145;28;20669;-61
2022/07/22 05:41:45;;;;;;;18.40;5.20;;;17.50;99.90;;;;;;5072567;28;20497;-61
2022/07/22 05:44:10;;;;;;;16.45;5.57;;;17.50;99.90;;;;;;5071214;28;20024;-61
2022/07/22 05:46:36;;;;;;;11.27;5.38;;;17.60;99.90;;;;;;5072154;28;20028;-61
2022/07/22 05:49:02;;;;;;;17.60;5.82;;;17.80;99.90;;;;;;5072935;28;20032;-60
2022/07/22 05:51:28;;;;;;;15.25;5.60;;;18.10;99.90;;;;;;5072234;28;20033;-60
2022/07/22 05:53:53;;;;;;;17.83;6.15;;;18.50;99.90;;;;;;5072515;28;20016;-62
2022/07/22 05:56:19;;;;;;;17.17;5.57;;;18.70;99.90;;;;;;5072409;28;20021;-62
2022/07/22 05:58:45;;;;;;;12.82;6.07;;;18.40;99.90;;;;;;5072362;28;20044;-66
2022/07/22 06:01:11;;;;;;;20.33;6.75;;;18.30;99.90;;;;;;5072481;28;20105;-60
2022/07/22 06:03:37;;;;;;;18.13;6.22;;;18.30;99.90;;;;;;5071874;28;20112;-60
2022/07/22 06:06:04;;;;;;;17.77;6.20;;;18.40;99.90;;;;;;5072138;28;20110;-62
2022/07/22 06:08:30;;;;;;;23.02;6.03;;;18.30;99.90;;;;;;5072136;28;20128;-61
2022/07/22 06:10:59;;;;;;;16.40;5.68;;;18.40;99.90;;;;;;5071748;28;20119;-61
2022/07/22 06:13:25;;;;;;;20.63;6.53;;;18.60;99.90;;;;;;5070667;28;20067;-61
2022/07/22 06:15:52;;;;;;;15.48;5.88;;;18.60;99.90;;;;;;5070488;28;20035;-61
2022/07/22 06:18:17;;;;;;;21.25;6.05;;;18.70;99.90;;;;;;5071949;28;20023;-62
2022/07/22 06:20:43;;;;;;;15.90;5.75;;;18.70;99.90;;;;;;5070835;28;20025;-62
2022/07/22 06:23:09;;;;;;;18.65;5.43;;;18.80;99.90;;;;;;5071760;28;20397;-62
2022/07/22 06:25:35;;;;;;;14.98;5.00;;;18.90;99.90;;;;;;5071607;28;20111;-62
2022/07/22 06:28:01;;;;;;;18.90;5.72;;;19.00;99.90;;;;;;5070480;28;20028;-62
2022/07/22 06:30:27;;;;;;;19.92;6.32;;;19.10;99.90;;;;;;5071574;28;20036;-63
2022/07/22 06:32:53;;;;;;;20.35;7.13;;;19.30;99.90;;;;;;5072138;28;20036;-62
2022/07/22 06:35:18;;;;;;;18.20;5.93;;;19.20;99.90;;;;;;5071587;28;20020;-62
2022/07/22 06:37:44;;;;;;;20.35;5.97;;;19.50;99.90;;;;;;5071556;28;20362;-62
2022/07/22 06:40:10;;;;;;;14.88;5.43;;;19.60;99.90;;;;;;5071952;28;20122;-61
2022/07/22 06:42:36;;;;;;;17.88;4.53;;;19.50;99.90;;;;;;5071446;28;20047;-62
2022/07/22 06:45:02;;;;;;;17.23;4.22;;;19.50;99.90;;;;;;5071564;28;20033;-62
2022/07/22 06:47:29;;;;;;;15.25;4.00;;;19.40;99.90;;;;;;5071454;28;20502;-62
2022/07/22 06:49:54;;;;;;;14.82;4.43;;;19.10;99.90;;;;;;5071256;28;20016;-62
2022/07/22 06:52:20;;;;;;;15.45;3.83;;;19.40;99.90;;;;;;5071160;28;20514;-62
2022/07/22 06:54:45;;;;;;;11.40;3.90;;;19.70;99.90;;;;;;5070948;28;20367;-62
2022/07/22 06:57:11;;;;;;;11.95;3.88;;;19.80;99.90;;;;;;5069566;28;20065;-62
2022/07/22 06:59:37;;;;;;;13.07;3.40;;;19.70;99.90;;;;;;5071050;28;20032;-62
2022/07/22 07:02:03;;;;;;;9.20;3.40;;;19.80;99.90;;;;;;5071407;28;20389;-62
2022/07/22 07:04:29;;;;;;;14.55;3.58;;;19.90;99.90;;;;;;5070895;28;20020;-62
2022/07/22 07:06:55;;;;;;;9.18;3.03;;;19.90;99.90;;;;;;5071112;28;20025;-62
2022/07/22 07:09:20;;;;;;;8.55;2.75;;;20.30;99.90;;;;;;5071199;28;20029;-62
2022/07/22 07:11:46;;;;;;;10.48;2.50;;;20.40;99.90;;;;;;5070978;28;20120;-62
2022/07/22 07:14:12;;;;;;;8.90;2.67;;;20.40;99.90;;;;;;5071222;28;20493;-63
2022/07/22 07:16:37;;;;;;;7.80;2.65;;;20.70;99.90;;;;;;5071073;28;20039;-62
2022/07/22 07:19:03;;;;;;;9.18;2.40;;;20.90;99.90;;;;;;5071113;28;20025;-62
2022/07/22 07:21:29;;;;;;;9.23;2.10;;;20.90;99.90;;;;;;5070871;28;20028;-62
2022/07/22 07:23:55;;;;;;;4.95;1.75;;;20.90;99.90;;;;;;5071580;28;20223;-63
2022/07/22 07:26:20;;;;;;;10.45;2.42;;;20.90;99.90;;;;;;5070652;28;20024;-61
2022/07/22 07:28:46;;;;;;;5.05;2.08;;;21.20;99.90;;;;;;5070814;28;20060;-61
2022/07/22 07:31:12;;;;;;;8.23;2.70;;;21.20;99.90;;;;;;5070686;28;20043;-60
2022/07/22 07:33:38;;;;;;;8.65;2.28;;;20.90;99.90;;;;;;5070524;28;20017;-60
2022/07/22 07:36:04;;;;;;;7.35;2.05;;;20.70;99.90;;;;;;5071036;28;20036;-62
2022/07/22 07:38:30;;;;;;;10.38;2.00;;;20.50;99.90;;;;;;5071024;28;20028;-62
2022/07/22 07:40:56;;;;;;;8.80;1.98;;;20.60;99.90;;;;;;5070695;28;20036;-62
2022/07/22 07:43:22;;;;;;;9.02;2.40;;;20.80;99.90;;;;;;5070670;28;20032;-62
2022/07/22 07:45:48;;;;;;;8.73;2.58;;;20.70;99.90;;;;;;5070413;28;20078;-63
2022/07/22 07:48:14;;;;;;;7.97;2.42;;;20.80;99.90;;;;;;5069529;28;20473;-62
2022/07/22 07:50:40;;;;;;;8.48;2.67;;;21.60;99.90;;;;;;5070701;28;20035;-62
2022/07/22 07:53:05;;;;;;;6.32;2.22;;;22.20;99.90;;;;;;5070625;28;20029;-62
2022/07/22 07:55:32;;;;;;;7.15;2.17;;;22.80;99.90;;;;;;5070435;28;20359;-63
2022/07/22 07:57:57;;;;;;;8.75;2.20;;;22.80;99.90;;;;;;5069763;28;20028;-61
2022/07/22 08:00:28;;;;;;;11.43;2.22;;;23.00;99.90;;;;;;5070479;28;20108;-62
2022/07/22 08:02:55;;;;;;;7.03;2.20;;;22.70;99.90;;;;;;5069316;28;20553;-63
2022/07/22 08:05:21;;;;;;;7.57;1.80;;;23.10;99.90;;;;;;5070582;28;20520;-63
2022/07/22 08:07:47;;;;;;;6.05;1.85;;;23.10;99.90;;;;;;5070614;28;20024;-64
2022/07/22 08:10:13;;;;;;;11.15;2.22;;;23.60;99.90;;;;;;5072799;28;20043;-63
2022/07/22 08:12:39;;;;;;;7.72;1.90;;;24.00;99.90;;;;;;5074148;28;20035;-64
2022/07/22 08:15:05;;;;;;;5.47;1.80;;;24.40;99.90;;;;;;5074457;28;20389;-63
2022/07/22 08:17:32;;;;;;;8.80;1.95;;;24.70;99.90;;;;;;5073946;28;20028;-63
2022/07/22 08:19:58;;;;;;;8.65;2.53;;;25.20;99.90;;;;;;5073017;28;20032;-63
2022/07/22 08:22:23;;;;;;;4.82;1.90;;;25.90;99.90;;;;;;5074346;28;20430;-63
2022/07/22 08:24:49;;;;;;;7.10;1.98;;;26.30;99.90;;;;;;5074162;28;20036;-64
2022/07/22 08:27:15;;;;;;;7.05;2.40;;;26.20;99.80;;;;;;5074156;28;20028;-63
2022/07/22 08:29:40;;;;;;;8.18;2.33;;;25.80;99.50;;;;;;5074845;28;20027;-61
2022/07/22 08:32:06;;;;;;;7.35;2.50;;;25.10;99.90;;;;;;5074000;28;20024;-62
2022/07/22 08:34:32;;;;;;;10.00;2.65;;;24.90;99.90;;;;;;5074080;28;20023;-63
2022/07/22 08:36:57;;;;;;;7.43;2.60;;;24.60;99.90;;;;;;5073920;28;20032;-62
2022/07/22 08:39:23;;;;;;;9.48;2.90;;;24.00;99.90;;;;;;5074279;28;20017;-62
2022/07/22 08:41:49;;;;;;;4.60;2.42;;;24.00;99.90;;;;;;5074323;28;20083;-63
2022/07/22 08:44:14;;;;;;;6.93;2.60;;;24.20;99.90;;;;;;5073858;28;20021;-62
2022/07/22 08:46:44;;;;;;;7.50;2.90;;;23.90;99.90;;;;;;5073686;28;20036;-62
2022/07/22 08:49:16;;;;;;;8.10;3.00;;;23.90;99.90;;;;;;5074254;28;20035;-63
2022/07/22 08:51:42;;;;;;;9.25;3.20;;;24.00;99.90;;;;;;5072642;28;20040;-63
2022/07/22 08:54:08;;;;;;;8.55;2.90;;;24.30;99.90;;;;;;5074140;28;20024;-62
2022/07/22 08:56:34;;;;;;;9.25;3.20;;;24.20;99.90;;;;;;5072553;28;20032;-62
2022/07/22 08:59:00;;;;;;;7.10;2.95;;;23.50;99.90;;;;;;5073894;28;20048;-62
2022/07/22 09:01:25;;;;;;;10.57;3.22;;;23.60;99.90;;;;;;5073249;28;20112;-62
2022/07/22 09:03:56;;;;;;;6.97;3.15;;;23.30;99.90;;;;;;5073430;28;20096;-62
2022/07/22 09:06:24;;;;;;;6.38;3.00;;;23.20;99.90;;;;;;5073486;28;20032;-61
2022/07/22 09:09:05;;;;;;;8.82;3.13;;;22.60;99.90;;;;;;5071925;28;20024;-61
2022/07/22 09:11:31;;;;;;;6.43;3.00;;;22.30;99.90;;;;;;5073028;28;20032;-63
2022/07/22 09:13:59;;;;;;;5.50;2.88;;;22.50;99.90;;;;;;5073171;28;20063;-63
2022/07/22 09:16:46;;;;;;;6.85;3.35;;;22.60;99.90;;;;;;5073105;28;20163;-62
2022/07/22 09:19:12;;;;;;;7.75;3.00;;;22.70;99.90;;;;;;5071955;28;20374;-62
2022/07/22 09:21:44;;;;;;;8.35;3.38;;;23.40;99.90;;;;;;5072557;28;20033;-63
2022/07/22 09:24:48;;;;;;;11.05;2.90;;;24.20;99.90;;;;;;5072998;28;20112;-63
2022/07/22 09:27:23;;;;;;;6.47;2.80;;;24.80;99.90;;;;;;5030811;28;20041;-62
2022/07/22 09:29:50;;;;;;;8.77;3.45;;;25.30;99.90;;;;;;5066992;28;20056;-62
2022/07/22 09:32:15;;;;;;;6.72;2.83;;;25.10;99.90;;;;;;5072736;28;20040;-62
2022/07/22 09:34:41;;;;;;;5.53;3.08;;;25.00;99.90;;;;;;5073024;28;20017;-62
2022/07/22 09:37:07;;;;;;;12.07;2.85;;;25.00;99.90;;;;;;5073319;28;20043;-62
2022/07/22 09:39:33;;;;;;;6.47;2.97;;;25.00;99.90;;;;;;5072966;28;20039;-63
2022/07/22 09:42:05;;;;;;;9.48;2.88;;;25.90;99.90;;;;;;5072342;28;20060;-62
2022/07/22 09:44:31;;;;;;;9.07;3.63;;;26.30;99.90;;;;;;5072449;28;20043;-62
2022/07/22 09:46:57;;;;;;;7.22;2.83;;;26.60;97.80;;;;;;5072884;28;20033;-63
2022/07/22 09:49:38;;;;;;;5.95;2.90;;;26.40;98.60;;;;;;5072483;28;20485;-63
2022/07/22 09:52:05;;;;;;;6.88;2.80;;;26.10;98.70;;;;;;5072425;28;20028;-62
2022/07/22 09:54:31;;;;;;;11.98;3.10;;;25.80;98.50;;;;;;5072602;28;20021;-63
2022/07/22 09:56:57;;;;;;;8.93;2.72;;;25.60;99.80;;;;;;5072461;28;20063;-63
2022/07/22 09:59:23;;;;;;;6.85;2.70;;;25.90;99.90;;;;;;5072100;28;20186;-62
2022/07/22 10:01:53;;;;;;;8.43;3.30;;;25.90;99.00;;;;;;5072261;28;20075;-62
2022/07/22 10:04:20;;;;;;;7.75;2.92;;;26.00;98.30;;;;;;5072148;28;20036;-64
2022/07/22 10:06:48;;;;;;;8.07;2.85;;;26.40;97.40;;;;;;5072136;28;20540;-63
2022/07/22 10:09:16;;;;;;;6.60;3.05;;;26.70;97.80;;;;;;5072194;28;20367;-63
2022/07/22 10:11:46;;;;;;;6.97;3.03;;;25.10;99.50;;;;;;5072148;28;20396;-64
2022/07/22 10:14:14;;;;;;;7.05;3.10;;;24.30;99.90;;;;;;5072031;28;20013;-63
2022/07/22 10:16:40;;;;;;;6.75;3.20;;;24.40;99.90;;;;;;5071988;28;20103;-63
2022/07/22 10:19:07;;;;;;;5.95;3.00;;;24.80;99.90;;;;;;5070624;28;20025;-61
2022/07/22 10:21:34;;;;;;;8.15;2.75;;;24.90;99.90;;;;;;5071730;28;20071;-60
2022/07/22 10:24:23;;;;;;;9.63;3.40;;;25.40;99.90;;;;;;5072062;28;20116;-62
2022/07/22 10:26:50;;;;;;;6.60;2.70;;;26.00;99.30;;;;;;5071517;28;20524;-61
2022/07/22 10:29:30;;;;;;;5.38;3.03;;;26.60;98.50;;;;;;5071869;28;20448;-61
2022/07/22 10:32:24;;;;;;;7.68;2.80;;;25.60;98.20;;;;;;5072044;28;20036;-62
2022/07/22 10:34:59;;;;;;;7.43;3.13;;;25.00;99.90;;;;;;5071657;28;20096;-63
2022/07/22 10:37:33;;;;;;;5.68;2.80;;;25.40;99.90;;;;;;5071418;28;20078;-63
2022/07/22 10:40:15;;;;;;;5.18;2.58;;;25.90;98.60;;;;;;5071871;28;20041;-63
2022/07/22 10:43:05;;;;;;;;;;;26.50;98.00;;;;;;5071681;28;20036;-63
2022/07/22 10:45:33;;;;;;;5.82;3.00;;;27.00;97.30;;;;;;5064769;28;20361;-63
2022/07/22 10:48:01;;;;;;;6.68;2.80;;;27.50;95.70;;;;;;5071549;28;20032;-64
2022/07/22 10:50:35;;;;;;;7.05;2.88;;;27.00;96.10;;;;;;5070951;28;20025;-63
2022/07/22 10:53:01;;;;;;;7.88;2.42;;;26.70;96.50;;;;;;5071617;28;20079;-63
2022/07/22 10:55:27;;;;;;;7.97;3.00;;;26.80;97.00;;;;;;5071117;28;20048;-64
2022/07/22 10:57:53;;;;;;;6.07;3.10;;;27.50;94.80;;;;;;5071272;28;20040;-63
2022/07/22 11:00:18;;;;;;;6.00;2.50;;;27.50;94.50;;;;;;5071457;28;20458;-63
2022/07/22 11:02:45;;;;;;;6.18;2.78;;;26.80;95.90;;;;;;5071069;28;20551;-63
2022/07/22 11:05:11;;;;;;;7.15;3.30;;;26.70;96.10;;;;;;5071083;28;20036;-62
2022/07/22 11:07:44;;;;;;;10.38;3.55;;;26.40;95.80;;;;;;5071167;28;20118;-62
2022/07/22 11:10:14;;;;;;;7.72;3.40;;;25.50;97.50;;;;;;5069820;28;20666;-62
2022/07/22 11:12:40;;;;;;;6.68;3.10;;;25.50;98.60;;;;;;5071580;28;20033;-64
2022/07/22 11:15:07;;;;;;;8.25;4.03;;;25.70;98.10;;;;;;5070993;28;20020;-63
2022/07/22 11:17:36;;;;;;;7.35;3.97;;;25.80;98.50;;;;;;5071327;28;20425;-62
2022/07/22 11:20:09;;;;;;;7.53;3.78;;;26.20;97.50;;;;;;5071676;28;20396;-63
2022/07/22 11:22:35;;;;;;;5.13;3.25;;;26.30;97.50;;;;;;5070834;28;20068;-63
2022/07/22 11:25:05;;;;;;;6.47;3.13;;;26.80;97.10;;;;;;5071158;28;20052;-63
2022/07/22 11:27:30;;;;;;;5.63;2.85;;;27.00;96.10;;;;;;5071101;28;20031;-63
2022/07/22 11:29:57;;;;;;;7.72;3.40;;;27.00;96.10;;;;;;5071029;28;20032;-63
2022/07/22 11:32:25;;;;;;;7.10;3.20;;;26.40;96.00;;;;;;5071378;28;20020;-63
2022/07/22 11:34:51;;;;;;;6.13;2.83;;;25.40;98.10;;;;;;5071649;28;20024;-63
2022/07/22 11:37:19;;;;;;;8.05;3.15;;;24.80;99.90;;;;;;5071214;28;20029;-63
2022/07/22 11:39:46;;;;;;;7.85;2.92;;;25.00;99.90;;;;;;5071273;28;20362;-63
2022/07/22 11:42:11;;;;;;;7.15;2.80;;;25.50;99.30;;;;;;5071589;28;20020;-62
2022/07/22 11:44:38;;;;;;;6.70;3.00;;;25.60;98.90;;;;;;5072588;28;20519;-63
2022/07/22 11:47:06;;;;;;;9.23;2.78;;;25.70;98.40;;;;;;5075341;28;20477;-63
2022/07/22 11:49:33;;;;;;;7.60;2.90;;;25.60;98.60;;;;;;5075273;28;20017;-62
2022/07/22 11:52:00;;;;;;;7.68;2.78;;;25.50;98.90;;;;;;5074647;28;20090;-63
2022/07/22 11:54:27;;;;;;;7.82;2.75;;;25.80;98.00;;;;;;5075170;28;20028;-63
2022/07/22 11:56:53;;;;;;;4.05;2.80;;;26.10;97.50;;;;;;5075013;28;20477;-63
2022/07/22 11:59:19;;;;;;;6.03;2.75;;;26.00;97.10;;;;;;5075014;28;20435;-63
2022/07/22 12:01:46;;;;;;;4.53;2.10;;;26.00;97.50;;;;;;5074800;28;20040;-63
2022/07/22 12:04:18;;;;;;;4.00;2.38;;;26.10;98.10;;;;;;5074821;28;20025;-64
2022/07/22 12:06:45;;;;;;;7.55;2.47;;;26.60;97.30;;;;;;5074770;28;20082;-64
2022/07/22 12:09:15;;;;;;;4.38;2.28;;;26.20;97.10;;;;;;5075053;28;20035;-63
2022/07/22 12:11:45;;;;;;;7.68;2.70;;;25.70;97.80;;;;;;5074744;28;20036;-64
2022/07/22 12:14:16;;;;;;;6.10;2.75;;;25.80;98.50;;;;;;5074632;28;20404;-61
2022/07/22 12:16:43;;;;;;;8.65;2.75;;;25.70;98.40;;;;;;5074585;28;20477;-61
2022/07/22 12:19:11;;;;;;;5.15;2.47;;;25.60;98.40;;;;;;5074572;28;20049;-63
2022/07/22 12:21:57;;;;;;;9.00;3.35;;;25.90;98.30;;;;;;5074310;28;20032;-63
2022/07/22 12:24:40;;;;;;;7.20;2.97;;;25.80;97.40;;;;;;5072874;28;20181;-63
2022/07/22 12:27:17;;;;;;;5.88;2.88;;;25.80;97.80;;;;;;5074413;28;20407;-62
2022/07/22 12:29:45;;;;;;;6.38;2.60;;;26.00;97.30;;;;;;5074268;28;20028;-62
2022/07/22 12:32:24;;;;;;;5.68;2.58;;;26.30;96.90;;;;;;5074111;28;20054;-62
2022/07/22 12:35:06;;;;;;;5.90;2.40;;;26.30;96.70;;;;;;5074125;28;20017;-61
2022/07/22 12:37:40;;;;;;;7.75;3.03;;;25.80;97.90;;;;;;5073708;28;20024;-63
2022/07/22 12:40:10;;;;;;;4.63;2.47;;;26.00;97.80;;;;;;5072737;28;20033;-63